Time;durP1;ratioP1;P1;durP2;ratioP2;P2;SDS_P1;SDS_P2;PMS_P1;PMS_P2;Temp;Humidity;BMP_temperature;BMP_pressure;BME280_temperature;BME280_humidity;BME280_pressure;Samples;Min_cycle;Max_cycle;Signal;HPM_P1;HPM_P2
2021/12/05 00:18:33;;;;;;;14.05;3.97;;;5.20;99.90;;;;;;4158846;28;20378;-62
2021/12/05 00:22:46;;;;;;;13.45;3.50;;;5.20;99.90;;;;;;4159373;28;20030;-62
2021/12/05 00:24:50;;;;;;;17.38;3.92;;;5.30;99.90;;;;;;4160009;28;20446;-62
2021/12/05 00:26:59;;;;;;;14.30;3.47;;;5.30;99.90;;;;;;4152238;28;20030;-62
2021/12/05 00:31:41;;;;;;;11.07;2.83;;;5.30;99.90;;;;;;4159068;28;20021;-62
2021/12/05 00:36:33;;;;;;;14.07;3.20;;;5.30;99.90;;;;;;4155896;28;20032;-62
2021/12/05 00:40:54;;;;;;;10.18;3.03;;;5.30;99.90;;;;;;4153106;28;20021;-62
2021/12/05 00:50:03;;;;;;;8.05;2.85;;;5.40;99.90;;;;;;4155055;28;20104;-62
2021/12/05 00:52:21;;;;;;;12.05;3.03;;;5.40;99.90;;;;;;4153709;28;20552;-62
2021/12/05 01:14:49;;;;;;;13.50;2.90;;;5.60;99.90;;;;;;4157318;28;20040;-61
2021/12/05 01:16:51;;;;;;;6.10;2.50;;;5.60;99.90;;;;;;4162383;28;20042;-63
2021/12/05 01:18:52;;;;;;;8.00;2.35;;;5.60;99.90;;;;;;4159409;28;20474;-62
2021/12/05 01:20:58;;;;;;;7.40;2.67;;;5.60;99.90;;;;;;4158265;28;20042;-63
2021/12/05 01:24:03;;;;;;;9.80;2.88;;;5.60;99.90;;;;;;4151242;28;20022;-63
2021/12/05 01:27:42;;;;;;;10.45;2.40;;;5.50;99.90;;;;;;4154112;28;20048;-62
2021/12/05 01:31:58;;;;;;;8.07;2.63;;;5.60;99.90;;;;;;4158365;28;20030;-62
2021/12/05 01:38:18;;;;;;;9.68;2.45;;;5.60;99.90;;;;;;4156793;28;20033;-63
2021/12/05 01:40:39;;;;;;;10.70;2.38;;;5.50;99.90;;;;;;4147942;28;20032;-63
2021/12/05 01:47:53;;;;;;;9.23;2.53;;;5.50;99.90;;;;;;4157091;28;20030;-62
2021/12/05 01:50:15;;;;;;;5.97;2.35;;;5.60;99.90;;;;;;4161006;28;20111;-61
2021/12/05 01:52:42;;;;;;;13.10;3.50;;;5.50;99.90;;;;;;4150877;28;20395;-62
2021/12/05 01:59:42;;;;;;;13.20;2.33;;;5.50;99.90;;;;;;4138108;28;20076;-63
2021/12/05 02:15:51;;;;;;;13.75;2.40;;;5.40;99.90;;;;;;4149857;28;20065;-63
2021/12/05 02:32:20;;;;;;;8.65;1.90;;;5.30;99.90;;;;;;4160498;28;20025;-62
2021/12/05 02:41:20;;;;;;;5.65;1.88;;;5.30;99.90;;;;;;4155772;28;20033;-62
2021/12/05 02:44:10;;;;;;;11.70;2.45;;;5.30;99.90;;;;;;4155699;28;20036;-62
2021/12/05 02:45:46;;;;;;;13.07;2.60;;;5.30;99.90;;;;;;4152076;28;20045;-63
2021/12/05 02:47:51;;;;;;;;;;;5.30;99.90;;;;;;4159850;28;20032;-63
2021/12/05 02:49:54;;;;;;;10.73;2.47;;;5.20;99.90;;;;;;4155855;28;19928;-63
2021/12/05 02:52:00;;;;;;;10.75;2.03;;;5.30;99.90;;;;;;4152715;28;20431;-63
2021/12/05 02:56:02;;;;;;;7.45;2.10;;;5.20;99.90;;;;;;4152600;28;20084;-62
2021/12/05 02:58:16;;;;;;;12.20;2.38;;;5.20;99.90;;;;;;4161056;28;20065;-63
2021/12/05 03:00:32;;;;;;;16.13;2.55;;;5.10;99.90;;;;;;4158746;28;20030;-63
2021/12/05 03:02:39;;;;;;;7.50;1.85;;;5.10;99.90;;;;;;4160825;28;20516;-62
2021/12/05 03:04:48;;;;;;;8.90;1.95;;;5.10;99.90;;;;;;4157728;28;20034;-62
2021/12/05 03:06:52;;;;;;;6.05;1.70;;;5.10;99.90;;;;;;4154712;28;20038;-62
2021/12/05 03:08:59;;;;;;;10.38;2.72;;;5.10;99.90;;;;;;4154018;28;20029;-62
2021/12/05 03:11:01;;;;;;;8.38;2.05;;;5.10;99.90;;;;;;4161201;28;20147;-61
2021/12/05 03:13:01;;;;;;;6.43;2.00;;;5.20;99.90;;;;;;4155091;28;20473;-62
2021/12/05 03:15:11;;;;;;;5.70;1.92;;;5.20;99.90;;;;;;4160289;28;20022;-63
2021/12/05 03:17:12;;;;;;;6.32;1.98;;;5.20;99.90;;;;;;4160621;28;20038;-62
2021/12/05 03:19:13;;;;;;;11.68;2.35;;;5.20;99.90;;;;;;4156179;28;20468;-62
2021/12/05 03:21:15;;;;;;;11.77;2.40;;;5.20;99.90;;;;;;4155358;28;20041;-62
2021/12/05 03:23:16;;;;;;;5.10;1.77;;;5.10;99.90;;;;;;4160414;28;20302;-62
2021/12/05 03:25:17;;;;;;;6.82;1.92;;;5.20;99.90;;;;;;4155120;28;20041;-62
2021/12/05 03:27:19;;;;;;;10.65;2.42;;;5.20;99.90;;;;;;4160230;28;20026;-62
2021/12/05 03:29:21;;;;;;;6.38;2.08;;;5.20;99.90;;;;;;4156068;28;20033;-63
2021/12/05 03:31:28;;;;;;;8.23;2.40;;;5.20;99.90;;;;;;4159645;28;20041;-62
2021/12/05 03:33:28;;;;;;;13.32;2.70;;;5.20;99.90;;;;;;4161532;28;20380;-62
2021/12/05 03:35:30;;;;;;;8.52;2.53;;;5.20;99.90;;;;;;4150889;28;20030;-63
2021/12/05 03:37:31;;;;;;;10.32;1.90;;;5.20;99.90;;;;;;4156498;28;20040;-62
2021/12/05 03:39:31;;;;;;;8.00;1.65;;;5.10;99.90;;;;;;4158754;28;20026;-63
2021/12/05 03:41:32;;;;;;;7.10;1.98;;;5.20;99.90;;;;;;4155141;28;20033;-62
2021/12/05 03:43:34;;;;;;;9.48;1.85;;;5.20;99.90;;;;;;4156918;28;20487;-62
2021/12/05 03:45:41;;;;;;;5.85;1.83;;;5.20;99.90;;;;;;4164158;28;20121;-62
2021/12/05 03:47:41;;;;;;;5.93;1.92;;;5.20;99.90;;;;;;4160380;28;20041;-62
2021/12/05 03:49:42;;;;;;;7.00;2.22;;;5.20;99.90;;;;;;4156210;28;20029;-62
2021/12/05 03:51:48;;;;;;;9.85;2.05;;;5.10;99.90;;;;;;4159435;28;20483;-62
2021/12/05 03:53:50;;;;;;;9.32;2.20;;;5.10;99.90;;;;;;4160151;28;20049;-62
2021/12/05 03:55:53;;;;;;;8.05;1.92;;;5.20;99.90;;;;;;4158000;28;20030;-62
2021/12/05 03:57:53;;;;;;;8.07;2.13;;;5.20;99.90;;;;;;4158423;28;20391;-63
2021/12/05 03:59:54;;;;;;;8.50;2.17;;;5.10;99.90;;;;;;4156963;28;20109;-61
2021/12/05 04:01:56;;;;;;;7.85;1.70;;;5.10;99.90;;;;;;4157736;28;20031;-62
2021/12/05 04:03:57;;;;;;;9.45;2.13;;;5.10;99.90;;;;;;4159733;28;20103;-62
2021/12/05 04:06:01;;;;;;;5.97;1.45;;;5.10;99.90;;;;;;4153939;28;20029;-62
2021/12/05 04:08:06;;;;;;;7.63;1.80;;;5.10;99.90;;;;;;4158296;28;20045;-62
2021/12/05 04:10:08;;;;;;;4.47;1.33;;;5.10;99.90;;;;;;4152059;28;20033;-63
2021/12/05 04:12:10;;;;;;;6.43;1.90;;;5.10;99.90;;;;;;4158962;28;20046;-62
2021/12/05 04:14:13;;;;;;;5.78;1.85;;;5.10;99.90;;;;;;4158239;28;20084;-62
2021/12/05 04:16:15;;;;;;;4.97;1.90;;;5.00;99.90;;;;;;4156128;28;20049;-62
2021/12/05 04:18:15;;;;;;;5.70;2.05;;;5.10;99.90;;;;;;4159322;28;20045;-62
2021/12/05 04:20:18;;;;;;;4.97;1.63;;;5.00;99.90;;;;;;4159018;28;20113;-63
2021/12/05 04:22:19;;;;;;;10.77;2.03;;;5.00;99.90;;;;;;4152043;28;20538;-62
2021/12/05 04:24:22;;;;;;;6.72;1.90;;;5.00;99.90;;;;;;4156625;28;20083;-62
2021/12/05 04:26:22;;;;;;;8.93;1.88;;;5.00;99.90;;;;;;4162015;28;20033;-62
2021/12/05 04:28:25;;;;;;;14.95;2.10;;;5.00;99.90;;;;;;4154818;28;20422;-62
2021/12/05 04:30:26;;;;;;;7.45;1.83;;;5.00;99.90;;;;;;4151291;28;20637;-63
2021/12/05 04:32:27;;;;;;;7.65;1.80;;;5.00;99.90;;;;;;4159729;28;20041;-63
2021/12/05 04:34:27;;;;;;;7.28;1.80;;;5.00;99.90;;;;;;4158761;28;20494;-63
2021/12/05 04:36:29;;;;;;;7.63;1.75;;;5.00;99.90;;;;;;4154907;28;20037;-63
2021/12/05 04:38:30;;;;;;;7.57;2.10;;;5.00;99.90;;;;;;4159404;28;20037;-63
2021/12/05 04:40:33;;;;;;;8.50;1.88;;;5.00;99.90;;;;;;4158671;28;20044;-62
2021/12/05 04:42:33;;;;;;;8.13;2.08;;;5.00;99.90;;;;;;4159890;28;20021;-63
2021/12/05 04:44:34;;;;;;;5.72;1.98;;;5.00;99.90;;;;;;4158237;28;20030;-62
2021/12/05 04:46:35;;;;;;;7.40;1.60;;;5.00;99.90;;;;;;4151916;28;20029;-62
2021/12/05 04:48:37;;;;;;;5.88;1.98;;;5.00;99.90;;;;;;4151508;28;20100;-62
2021/12/05 04:50:38;;;;;;;5.93;1.58;;;5.00;99.90;;;;;;4155592;28;20029;-63
2021/12/05 04:52:39;;;;;;;5.30;1.50;;;5.00;99.90;;;;;;4159161;28;20045;-63
2021/12/05 04:54:40;;;;;;;5.78;1.55;;;5.00;99.90;;;;;;4157728;28;20038;-63
2021/12/05 04:56:41;;;;;;;4.35;1.85;;;5.00;99.90;;;;;;4155555;28;20495;-62
2021/12/05 04:58:42;;;;;;;7.10;2.17;;;5.00;99.90;;;;;;4156171;28;20488;-63
2021/12/05 05:00:45;;;;;;;5.32;1.85;;;5.00;99.90;;;;;;4152143;28;20473;-63
2021/12/05 05:02:46;;;;;;;10.43;2.13;;;5.10;99.90;;;;;;4151011;28;20091;-62
2021/12/05 05:04:49;;;;;;;7.80;1.40;;;5.00;99.90;;;;;;4159147;28;20036;-62
2021/12/05 05:06:50;;;;;;;6.88;2.08;;;5.10;99.90;;;;;;4158780;28;20030;-63
2021/12/05 05:08:54;;;;;;;7.93;1.88;;;5.10;99.90;;;;;;4163115;28;20500;-62
2021/12/05 05:10:54;;;;;;;7.25;1.98;;;5.10;99.90;;;;;;4154763;28;20501;-63
2021/12/05 05:12:56;;;;;;;4.07;1.90;;;5.00;99.90;;;;;;4156542;28;20036;-62
2021/12/05 05:14:57;;;;;;;7.68;1.70;;;5.10;99.90;;;;;;4158819;28;20034;-63
2021/12/05 05:16:57;;;;;;;4.40;1.90;;;5.10;99.90;;;;;;4151155;28;20109;-62
2021/12/05 05:19:00;;;;;;;4.68;1.52;;;5.10;99.90;;;;;;4153336;28;20030;-63
2021/12/05 05:21:10;;;;;;;6.60;2.00;;;5.10;99.90;;;;;;4168056;28;20571;-63
2021/12/05 05:47:30;;;;;;;6.15;1.73;;;5.20;99.90;;;;;;4158736;28;20148;-63
2021/12/05 05:51:31;;;;;;;5.28;1.40;;;5.20;99.90;;;;;;4157738;28;20060;-62
2021/12/05 05:53:33;;;;;;;4.80;1.30;;;5.20;99.90;;;;;;4158989;28;20041;-63
2021/12/05 05:55:35;;;;;;;4.72;1.52;;;5.10;99.90;;;;;;4157893;28;20034;-63
2021/12/05 05:57:48;;;;;;;4.88;1.48;;;5.20;99.90;;;;;;4157830;28;20042;-62
2021/12/05 05:59:59;;;;;;;3.75;1.50;;;5.10;99.90;;;;;;4154371;28;20022;-63
2021/12/05 06:03:20;;;;;;;6.25;1.50;;;5.20;99.90;;;;;;4161070;28;20045;-63
2021/12/05 06:04:24;;;;;;;8.23;1.85;;;5.10;99.90;;;;;;4156473;28;20077;-62
2021/12/05 06:06:25;;;;;;;2.15;1.00;;;5.20;99.90;;;;;;4161420;28;20025;-63
2021/12/05 06:08:28;;;;;;;7.07;1.52;;;5.20;99.90;;;;;;4157003;28;20033;-62
2021/12/05 06:10:30;;;;;;;4.75;1.42;;;5.20;99.90;;;;;;4155909;28;20451;-62
2021/12/05 06:12:31;;;;;;;3.88;1.27;;;5.20;99.90;;;;;;4161706;28;20554;-62
2021/12/05 06:14:32;;;;;;;5.32;1.30;;;5.10;99.90;;;;;;4157785;28;20049;-63
2021/12/05 06:16:32;;;;;;;6.80;1.80;;;5.10;99.90;;;;;;4160001;28;20049;-63
2021/12/05 06:18:34;;;;;;;7.43;1.55;;;5.10;99.90;;;;;;4161773;28;20025;-63
2021/12/05 06:20:35;;;;;;;4.95;1.15;;;5.10;99.90;;;;;;4160804;28;20493;-63
2021/12/05 06:22:35;;;;;;;4.32;1.23;;;5.10;99.90;;;;;;4156928;28;20068;-62
2021/12/05 06:24:36;;;;;;;4.63;1.58;;;5.10;99.90;;;;;;4160330;28;20041;-63
2021/12/05 06:26:37;;;;;;;6.30;1.45;;;5.10;99.90;;;;;;4160669;28;20467;-63
2021/12/05 06:28:41;;;;;;;3.28;0.90;;;5.10;99.90;;;;;;4157070;28;20026;-62
2021/12/05 06:48:17;;;;;;;6.75;1.30;;;5.10;99.90;;;;;;4149069;28;20095;-63
2021/12/05 06:50:17;;;;;;;4.65;1.30;;;5.10;99.90;;;;;;4155797;28;20033;-63
2021/12/05 06:52:18;;;;;;;3.17;1.20;;;5.10;99.90;;;;;;4155720;28;20036;-63
2021/12/05 06:54:19;;;;;;;6.00;1.40;;;5.20;99.90;;;;;;4162011;28;20041;-63
2021/12/05 06:56:20;;;;;;;3.10;1.20;;;5.20;99.90;;;;;;4154662;28;20457;-63
2021/12/05 06:58:21;;;;;;;6.85;1.30;;;5.20;99.90;;;;;;4161190;28;20113;-63
2021/12/05 07:00:25;;;;;;;2.63;0.95;;;5.20;99.90;;;;;;4166485;28;20088;-63
2021/12/05 07:02:25;;;;;;;5.47;1.55;;;5.20;99.90;;;;;;4160226;28;20036;-63
2021/12/05 07:06:29;;;;;;;3.47;1.27;;;5.30;99.90;;;;;;4162477;28;20033;-63
2021/12/05 07:08:34;;;;;;;9.52;1.50;;;5.30;99.90;;;;;;4160654;28;20408;-63
2021/12/05 07:10:53;;;;;;;7.93;1.63;;;5.30;99.90;;;;;;4159110;28;20064;-63
2021/12/05 07:15:39;;;;;;;7.03;1.50;;;5.30;99.90;;;;;;4152278;28;20022;-64
2021/12/05 07:20:34;;;;;;;5.70;1.52;;;5.30;99.90;;;;;;4156390;28;20058;-63
2021/12/05 07:40:27;;;;;;;5.53;1.33;;;5.40;99.90;;;;;;4163252;28;20133;-63
2021/12/05 07:42:28;;;;;;;2.53;1.00;;;5.40;99.90;;;;;;4158716;28;20626;-63
2021/12/05 07:44:29;;;;;;;3.00;1.20;;;5.40;99.90;;;;;;4156812;28;20044;-63
2021/12/05 07:46:29;;;;;;;4.22;1.30;;;5.50;99.90;;;;;;4152879;28;20029;-63
2021/12/05 07:48:34;;;;;;;7.43;1.40;;;5.40;99.90;;;;;;4160733;28;20448;-63
2021/12/05 07:50:46;;;;;;;4.93;1.15;;;5.40;99.90;;;;;;4152565;28;20026;-63
2021/12/05 07:52:51;;;;;;;3.22;1.17;;;5.50;99.90;;;;;;4160428;28;20033;-63
2021/12/05 07:54:55;;;;;;;5.75;1.60;;;5.50;99.90;;;;;;4156894;28;20033;-63
2021/12/05 08:15:15;;;;;;;5.97;1.55;;;5.50;99.90;;;;;;4160892;28;20021;-64
2021/12/05 08:17:19;;;;;;;7.32;1.70;;;5.50;99.90;;;;;;4157679;28;20030;-63
2021/12/05 08:19:19;;;;;;;3.33;1.23;;;5.50;99.90;;;;;;4157476;28;20112;-62
2021/12/05 08:21:20;;;;;;;4.53;1.50;;;5.40;99.90;;;;;;4158886;28;20451;-63
2021/12/05 08:23:23;;;;;;;4.95;1.52;;;5.50;99.90;;;;;;4157058;28;20121;-63
2021/12/05 08:25:28;;;;;;;4.05;1.85;;;5.50;99.90;;;;;;4150252;28;20041;-63
2021/12/05 08:27:29;;;;;;;5.35;1.92;;;5.50;99.90;;;;;;4158115;28;20033;-63
2021/12/05 08:29:52;;;;;;;5.38;2.30;;;5.50;99.90;;;;;;4157873;28;20041;-62
2021/12/05 08:34:24;;;;;;;4.93;1.65;;;5.40;99.90;;;;;;4160384;28;20034;-62
2021/12/05 08:36:57;;;;;;;6.47;1.95;;;5.40;99.90;;;;;;4155714;28;20491;-63
2021/12/05 08:39:26;;;;;;;3.85;1.45;;;5.50;99.90;;;;;;4154984;28;20030;-63
2021/12/05 09:25:12;;;;;;;9.68;2.92;;;5.60;99.90;;;;;;4158749;28;20030;-63
2021/12/05 09:27:43;;;;;;;5.28;2.40;;;5.60;99.90;;;;;;4151364;28;20034;-62
2021/12/05 09:38:57;;;;;;;7.75;2.13;;;5.60;99.90;;;;;;4153741;28;20021;-63
2021/12/05 10:08:53;;;;;;;2.25;1.30;;;5.70;99.90;;;;;;4156745;28;20033;-62
2021/12/05 10:11:29;;;;;;;1.83;1.50;;;5.70;99.90;;;;;;4153017;28;20030;-63
2021/12/05 10:15:50;;;;;;;2.92;1.52;;;5.70;99.90;;;;;;4158222;28;20100;-63
2021/12/05 10:37:22;;;;;;;2.33;1.33;;;5.80;99.90;;;;;;4148759;28;20022;-63
2021/12/05 10:39:23;;;;;;;4.80;2.00;;;5.90;99.90;;;;;;4156781;28;20026;-62
2021/12/05 10:43:34;;;;;;;3.92;1.90;;;5.90;99.90;;;;;;4158542;28;20029;-62
2021/12/05 10:45:39;;;;;;;5.03;2.10;;;5.90;99.90;;;;;;4160746;28;20041;-63
2021/12/05 10:47:46;;;;;;;4.80;2.28;;;5.90;99.90;;;;;;4158358;28;20041;-62
2021/12/05 10:49:46;;;;;;;5.97;2.10;;;5.90;99.90;;;;;;4157787;28;20038;-62
2021/12/05 10:51:52;;;;;;;4.45;1.83;;;5.90;99.90;;;;;;4167977;28;20128;-62
2021/12/05 10:53:56;;;;;;;5.07;1.80;;;6.00;99.90;;;;;;4161363;28;20022;-63
2021/12/05 10:56:21;;;;;;;7.38;2.20;;;6.00;99.90;;;;;;4159048;28;20385;-62
2021/12/05 10:58:24;;;;;;;5.65;1.88;;;6.00;99.90;;;;;;4161548;28;20025;-62
2021/12/05 11:00:24;;;;;;;4.95;1.98;;;6.00;99.90;;;;;;4155514;28;20499;-63
2021/12/05 11:02:30;;;;;;;4.07;1.80;;;6.00;99.90;;;;;;4160533;28;20034;-62
2021/12/05 11:04:38;;;;;;;3.60;1.75;;;6.00;99.90;;;;;;4159132;28;20061;-62
2021/12/05 11:06:40;;;;;;;4.30;1.75;;;6.00;99.90;;;;;;4157006;28;20049;-61
2021/12/05 11:08:41;;;;;;;2.65;1.60;;;6.00;99.90;;;;;;4156475;28;20037;-62
2021/12/05 11:10:44;;;;;;;4.90;1.67;;;6.10;99.90;;;;;;4160076;28;20038;-62
2021/12/05 11:12:45;;;;;;;4.88;2.03;;;6.10;99.90;;;;;;4159169;28;20026;-62
2021/12/05 11:14:58;;;;;;;4.22;2.05;;;6.10;99.90;;;;;;4155925;28;20538;-62
2021/12/05 11:17:09;;;;;;;4.35;1.95;;;6.10;99.90;;;;;;4155588;28;20054;-63
2021/12/05 11:19:11;;;;;;;3.08;1.75;;;6.10;99.90;;;;;;4150997;28;20026;-62
2021/12/05 11:21:34;;;;;;;3.95;1.85;;;6.20;99.90;;;;;;4160219;28;20472;-62
2021/12/05 11:23:35;;;;;;;;;;;6.20;99.90;;;;;;4161014;28;20432;-62
2021/12/05 11:25:40;;;;;;;5.85;1.85;;;6.20;99.90;;;;;;4168395;28;19908;-63
2021/12/05 11:27:50;;;;;;;4.47;1.60;;;6.20;99.90;;;;;;4157309;28;20487;-62
2021/12/05 11:29:59;;;;;;;5.47;2.13;;;6.20;99.90;;;;;;4157703;28;20057;-62
2021/12/05 11:32:12;;;;;;;5.88;2.20;;;6.20;99.90;;;;;;4153279;28;20077;-63
2021/12/05 11:34:28;;;;;;;2.42;1.58;;;6.30;99.90;;;;;;4152191;28;20115;-62
2021/12/05 11:36:32;;;;;;;5.00;2.00;;;6.30;99.90;;;;;;4154751;28;20038;-62
2021/12/05 11:38:34;;;;;;;4.32;1.90;;;6.20;99.90;;;;;;4160855;28;20051;-62
2021/12/05 11:40:45;;;;;;;5.85;2.55;;;6.30;99.90;;;;;;4159957;28;20030;-63
2021/12/05 11:43:00;;;;;;;4.60;2.33;;;6.40;99.90;;;;;;4160554;28;20099;-62
2021/12/05 11:45:05;;;;;;;5.25;2.30;;;6.40;99.90;;;;;;4160281;28;20038;-61
2021/12/05 11:47:15;;;;;;;5.10;2.05;;;6.40;99.90;;;;;;4159981;28;20115;-62
2021/12/05 11:49:23;;;;;;;4.47;2.00;;;6.40;99.90;;;;;;4160564;28;20040;-62
2021/12/05 11:51:29;;;;;;;3.53;1.73;;;6.50;99.90;;;;;;4159699;28;20029;-62
2021/12/05 11:53:58;;;;;;;6.22;2.13;;;6.40;99.90;;;;;;4160891;28;20037;-62
2021/12/05 11:55:59;;;;;;;6.55;1.83;;;6.40;99.90;;;;;;4156075;28;20040;-63
2021/12/05 11:58:01;;;;;;;5.22;1.83;;;6.50;99.90;;;;;;4159350;28;20021;-63
2021/12/05 12:00:17;;;;;;;6.35;1.90;;;6.50;99.90;;;;;;4157520;28;20132;-63
2021/12/05 12:02:26;;;;;;;2.70;1.42;;;6.50;99.90;;;;;;4164511;28;20029;-62
2021/12/05 12:04:56;;;;;;;4.38;2.03;;;6.50;99.90;;;;;;4152528;28;20042;-61
2021/12/05 12:07:18;;;;;;;5.95;1.60;;;6.50;99.90;;;;;;4158315;28;20544;-63
2021/12/05 12:09:18;;;;;;;3.25;1.67;;;6.50;99.90;;;;;;4159341;28;20503;-63
2021/12/05 12:11:19;;;;;;;5.03;1.77;;;6.60;99.90;;;;;;4155231;28;20030;-63
2021/12/05 12:13:23;;;;;;;3.10;1.50;;;6.60;99.90;;;;;;4157336;28;20036;-63
2021/12/05 12:15:26;;;;;;;4.60;1.95;;;6.50;99.90;;;;;;4159588;28;20400;-62
2021/12/05 12:17:27;;;;;;;1.50;1.25;;;6.50;99.90;;;;;;4158489;28;20040;-63
2021/12/05 12:19:28;;;;;;;3.58;1.30;;;6.50;99.90;;;;;;4159972;28;20041;-63
2021/12/05 12:21:39;;;;;;;3.03;1.50;;;6.50;99.90;;;;;;4154428;28;20423;-62
2021/12/05 12:23:40;;;;;;;2.55;1.50;;;6.60;99.90;;;;;;4154144;28;20124;-62
2021/12/05 12:25:45;;;;;;;2.95;1.50;;;6.70;99.90;;;;;;4163864;28;20039;-63
2021/12/05 12:27:47;;;;;;;4.38;1.60;;;6.60;99.90;;;;;;4160122;28;20033;-63
2021/12/05 12:29:52;;;;;;;2.58;1.58;;;6.70;99.90;;;;;;4153850;28;20036;-62
2021/12/05 12:31:58;;;;;;;2.55;1.40;;;6.70;99.90;;;;;;4154201;28;20030;-63
2021/12/05 12:34:05;;;;;;;5.03;1.80;;;6.70;99.90;;;;;;4155967;28;20515;-63
2021/12/05 12:36:06;;;;;;;4.97;1.95;;;6.70;99.90;;;;;;4160775;28;20030;-62
2021/12/05 12:38:22;;;;;;;3.28;1.50;;;6.80;99.90;;;;;;4156425;28;20039;-62
2021/12/05 12:40:45;;;;;;;3.58;1.60;;;6.80;99.90;;;;;;4158782;28;21346;-63
2021/12/05 12:42:46;;;;;;;6.03;2.10;;;6.80;99.90;;;;;;4150920;28;20026;-63
2021/12/05 12:45:05;;;;;;;4.40;2.30;;;6.80;99.90;;;;;;4149216;28;20052;-63
2021/12/05 12:47:06;;;;;;;5.40;2.00;;;6.80;99.90;;;;;;4158990;28;20112;-62
2021/12/05 12:49:16;;;;;;;5.43;2.65;;;6.90;99.90;;;;;;4158364;28;20025;-62
2021/12/05 12:51:43;;;;;;;8.68;2.90;;;6.80;99.90;;;;;;4150648;28;20380;-63
2021/12/05 12:53:44;;;;;;;3.75;1.63;;;6.90;99.90;;;;;;4156074;28;20048;-62
2021/12/05 12:55:58;;;;;;;3.75;1.73;;;6.80;99.90;;;;;;4151159;28;20041;-62
2021/12/05 12:58:04;;;;;;;5.00;1.70;;;6.90;99.90;;;;;;4158593;28;20037;-62
2021/12/05 13:00:15;;;;;;;3.83;1.65;;;6.90;99.90;;;;;;4158917;28;20033;-63
2021/12/05 13:11:19;;;;;;;3.67;1.30;;;6.90;99.90;;;;;;4157834;28;20032;-63
2021/12/05 13:13:26;;;;;;;2.95;1.02;;;6.90;99.90;;;;;;4152373;28;20040;-63
2021/12/05 13:15:52;;;;;;;3.10;1.40;;;7.00;99.90;;;;;;4150743;28;20021;-63
2021/12/05 13:17:54;;;;;;;4.07;1.63;;;7.00;99.90;;;;;;4158918;28;20050;-62
2021/12/05 13:19:59;;;;;;;1.95;1.33;;;7.00;99.90;;;;;;4158557;28;20060;-62
2021/12/05 13:22:06;;;;;;;3.65;1.90;;;7.10;99.90;;;;;;4162217;28;20463;-62
2021/12/05 13:24:15;;;;;;;4.03;2.00;;;7.10;99.90;;;;;;4161369;28;20029;-63
2021/12/05 13:26:25;;;;;;;2.67;1.60;;;7.00;99.90;;;;;;4164702;28;20037;-63
2021/12/05 13:28:51;;;;;;;6.18;2.22;;;7.10;99.90;;;;;;4164909;28;20029;-63
2021/12/05 13:30:52;;;;;;;4.22;1.80;;;7.10;99.90;;;;;;4153449;28;20029;-61
2021/12/05 13:33:20;;;;;;;3.28;1.85;;;7.10;99.90;;;;;;4158444;28;20067;-63
2021/12/05 13:35:24;;;;;;;3.95;1.80;;;7.10;99.90;;;;;;4156708;28;20033;-63
2021/12/05 13:37:44;;;;;;;2.53;1.70;;;7.10;99.90;;;;;;4153509;28;20443;-63
2021/12/05 13:39:48;;;;;;;2.95;1.60;;;7.10;99.90;;;;;;4151516;28;20038;-63
2021/12/05 13:42:10;;;;;;;3.65;1.75;;;7.20;99.90;;;;;;4168231;28;20411;-63
2021/12/05 13:44:11;;;;;;;2.75;1.42;;;7.20;99.90;;;;;;4151689;28;20030;-63
2021/12/05 13:46:32;;;;;;;2.47;1.42;;;7.10;99.90;;;;;;4158157;28;20034;-63
2021/12/05 13:48:34;;;;;;;2.33;1.40;;;7.20;99.90;;;;;;4158203;28;20038;-62
2021/12/05 13:51:05;;;;;;;3.70;1.95;;;7.20;99.90;;;;;;4153381;28;20072;-62
2021/12/05 13:53:06;;;;;;;3.40;2.08;;;7.20;99.90;;;;;;4144688;28;20049;-63
2021/12/05 13:55:40;;;;;;;5.65;2.45;;;7.20;99.90;;;;;;4155470;28;20088;-63
2021/12/05 13:58:12;;;;;;;2.53;1.83;;;7.30;99.90;;;;;;4157732;28;20040;-63
2021/12/05 14:00:44;;;;;;;3.77;1.70;;;7.30;99.90;;;;;;4154583;28;20060;-64
2021/12/05 14:02:52;;;;;;;4.45;1.88;;;7.30;99.90;;;;;;4150713;28;20284;-62
2021/12/05 14:04:53;;;;;;;2.55;1.70;;;7.30;99.90;;;;;;4155818;28;20480;-62
2021/12/05 14:07:01;;;;;;;3.83;1.67;;;7.30;99.90;;;;;;4155934;28;20092;-63
2021/12/05 14:09:16;;;;;;;3.25;1.27;;;7.30;99.90;;;;;;4157836;28;20113;-64
2021/12/05 14:11:16;;;;;;;5.15;1.80;;;7.40;99.90;;;;;;4150364;28;20026;-63
2021/12/05 14:13:21;;;;;;;2.55;1.38;;;7.40;99.90;;;;;;4158640;28;20555;-63
2021/12/05 14:15:22;;;;;;;5.43;1.33;;;7.30;99.90;;;;;;4149941;28;20037;-62
2021/12/05 14:17:26;;;;;;;3.95;1.33;;;7.40;99.90;;;;;;4158434;28;20103;-62
2021/12/05 14:19:30;;;;;;;3.20;1.48;;;7.40;99.90;;;;;;4153072;28;20037;-63
2021/12/05 14:21:32;;;;;;;3.42;1.65;;;7.40;99.90;;;;;;4149044;28;20125;-63
2021/12/05 14:23:32;;;;;;;5.03;1.60;;;7.40;99.90;;;;;;4153807;28;20042;-63
2021/12/05 14:25:33;;;;;;;3.58;1.77;;;7.40;99.90;;;;;;4159460;28;20038;-62
2021/12/05 14:27:37;;;;;;;2.45;1.67;;;7.40;99.90;;;;;;4161541;28;20033;-62
2021/12/05 14:29:40;;;;;;;2.35;1.38;;;7.40;99.90;;;;;;4158944;28;20040;-63
2021/12/05 14:31:42;;;;;;;;;;;7.40;99.90;;;;;;4161324;28;20036;-62
2021/12/05 14:33:49;;;;;;;2.53;1.60;;;7.40;99.90;;;;;;4158015;28;19905;-63
2021/12/05 14:35:49;;;;;;;4.32;1.90;;;7.40;99.90;;;;;;4160143;28;20511;-63
2021/12/05 14:37:52;;;;;;;2.22;1.38;;;7.50;99.90;;;;;;4159967;28;20041;-62
2021/12/05 14:39:59;;;;;;;2.35;1.45;;;7.40;99.90;;;;;;4160447;28;20038;-62
2021/12/05 14:42:05;;;;;;;3.13;1.83;;;7.50;99.90;;;;;;4160487;28;20025;-62
2021/12/05 14:44:07;;;;;;;6.03;2.60;;;7.50;99.90;;;;;;4156421;28;20037;-62
2021/12/05 14:46:07;;;;;;;3.70;2.30;;;7.50;99.90;;;;;;4151129;28;20037;-62
2021/12/05 14:48:10;;;;;;;3.83;2.10;;;7.40;99.90;;;;;;4161348;28;20039;-62
2021/12/05 14:50:21;;;;;;;3.08;1.80;;;7.50;99.90;;;;;;4152636;28;20480;-64
2021/12/05 14:52:31;;;;;;;3.28;1.50;;;7.40;99.90;;;;;;4161261;28;20025;-62
2021/12/05 14:54:35;;;;;;;3.22;1.90;;;7.50;99.90;;;;;;4166571;28;20099;-62
2021/12/05 14:56:38;;;;;;;2.90;1.85;;;7.50;99.90;;;;;;4153054;28;20188;-62
2021/12/05 14:58:41;;;;;;;5.60;1.75;;;7.50;99.90;;;;;;4154366;28;20459;-62
2021/12/05 15:00:49;;;;;;;3.20;1.65;;;7.50;99.90;;;;;;4155431;28;20033;-62
2021/12/05 15:03:06;;;;;;;3.63;1.65;;;7.50;99.90;;;;;;4154195;28;20026;-62
2021/12/05 15:05:13;;;;;;;2.63;1.63;;;7.60;99.90;;;;;;4157283;28;20037;-63
2021/12/05 15:07:17;;;;;;;5.07;2.25;;;7.60;99.90;;;;;;4161127;28;20469;-62
2021/12/05 15:09:32;;;;;;;3.17;1.90;;;7.60;99.90;;;;;;4159351;28;20030;-62
2021/12/05 15:11:34;;;;;;;3.92;1.90;;;7.50;99.90;;;;;;4155638;28;20063;-62
2021/12/05 15:13:34;;;;;;;4.80;1.90;;;7.60;99.90;;;;;;4160508;28;20069;-62
2021/12/05 15:15:36;;;;;;;2.90;1.70;;;7.60;99.90;;;;;;4160165;28;20129;-62
2021/12/05 15:17:42;;;;;;;3.15;2.03;;;7.60;99.90;;;;;;4159102;28;20473;-62
2021/12/05 15:19:48;;;;;;;2.95;1.88;;;7.60;99.90;;;;;;4155765;28;20477;-62
2021/12/05 15:21:49;;;;;;;3.50;2.03;;;7.60;99.90;;;;;;4157163;28;20523;-62
2021/12/05 15:23:50;;;;;;;3.78;1.88;;;7.60;99.90;;;;;;4160613;28;20531;-62
2021/12/05 15:25:50;;;;;;;4.97;2.50;;;7.60;99.90;;;;;;4161537;28;20033;-62
2021/12/05 15:27:51;;;;;;;4.53;2.40;;;7.60;99.90;;;;;;4154898;28;20357;-62
2021/12/05 15:30:22;;;;;;;4.45;2.80;;;7.60;99.90;;;;;;4157652;28;20044;-62
2021/12/05 15:32:25;;;;;;;3.60;2.88;;;7.60;99.90;;;;;;4135144;28;20041;-62
2021/12/05 15:34:34;;;;;;;5.13;2.65;;;7.50;99.90;;;;;;4159869;28;20051;-62
2021/12/05 15:36:35;;;;;;;4.45;2.90;;;7.60;99.90;;;;;;4153231;28;20561;-62
2021/12/05 15:38:36;;;;;;;8.73;3.42;;;7.60;99.90;;;;;;4157959;28;20084;-62
2021/12/05 15:40:42;;;;;;;7.00;3.25;;;7.50;99.90;;;;;;4159582;28;20033;-62
2021/12/05 15:42:43;;;;;;;4.88;3.22;;;7.60;99.90;;;;;;4156111;28;20092;-62
2021/12/05 15:44:44;;;;;;;4.72;2.92;;;7.50;99.90;;;;;;4154668;28;20033;-62
2021/12/05 15:46:45;;;;;;;6.03;3.03;;;7.50;99.90;;;;;;4159453;28;20033;-62
2021/12/05 15:48:48;;;;;;;4.93;3.15;;;7.50;99.90;;;;;;4161152;28;20064;-62
2021/12/05 15:50:51;;;;;;;5.82;3.15;;;7.50;99.90;;;;;;4162418;28;20376;-62
2021/12/05 15:52:54;;;;;;;;;;;7.50;99.90;;;;;;4153101;28;20037;-62
2021/12/05 15:54:56;;;;;;;4.20;2.65;;;7.50;99.90;;;;;;4152472;28;19910;-62
2021/12/05 15:57:23;;;;;;;5.93;3.40;;;7.50;99.90;;;;;;4160629;28;20071;-62
2021/12/05 15:59:24;;;;;;;7.97;4.30;;;7.50;99.90;;;;;;4158041;28;20075;-62
2021/12/05 16:01:26;;;;;;;8.85;4.53;;;7.40;99.90;;;;;;4154510;28;20410;-62
2021/12/05 16:03:44;;;;;;;8.95;3.95;;;7.40;99.90;;;;;;4156930;28;20021;-62
2021/12/05 16:05:54;;;;;;;5.97;3.58;;;7.40;99.90;;;;;;4159583;28;20041;-62
2021/12/05 16:08:05;;;;;;;6.38;3.22;;;7.40;99.90;;;;;;4160577;28;20085;-62
2021/12/05 16:10:20;;;;;;;4.75;2.97;;;7.40;99.90;;;;;;4156981;28;20510;-62
2021/12/05 16:12:21;;;;;;;4.20;2.72;;;7.30;99.90;;;;;;4154337;28;20489;-62
2021/12/05 16:14:36;;;;;;;3.47;2.42;;;7.30;99.90;;;;;;4151961;28;20033;-62
2021/12/05 16:16:36;;;;;;;5.07;2.92;;;7.30;99.90;;;;;;4154608;28;20054;-62
2021/12/05 16:18:39;;;;;;;5.35;3.15;;;7.40;99.90;;;;;;4152509;28;20051;-62
2021/12/05 16:20:41;;;;;;;;;;;7.30;99.90;;;;;;4154891;28;20430;-62